createdAt,value
2023-12-30T00:00:29.065Z,-5.09
2023-12-30T00:02:56.866Z,-5.12
2023-12-30T00:05:26.694Z,-5.05
2023-12-30T00:07:56.781Z,-5.13
2023-12-30T00:10:25.784Z,-5.06
2023-12-30T00:12:53.550Z,-5.01
2023-12-30T00:15:22.476Z,-5.15
2023-12-30T00:17:51.345Z,-5.19
2023-12-30T00:20:19.718Z,-5.23
2023-12-30T00:22:47.665Z,-5.24
2023-12-30T00:25:15.502Z,-5.23
2023-12-30T00:27:43.135Z,-5.11
2023-12-30T00:30:14.645Z,-5.25
2023-12-30T00:32:42.542Z,-5.32
2023-12-30T00:35:10.471Z,-5.24
2023-12-30T00:37:38.771Z,-5.27
2023-12-30T00:40:07.032Z,-5.21
2023-12-30T00:42:34.750Z,-5.38
2023-12-30T00:45:02.437Z,-5.51
2023-12-30T00:47:32.074Z,-5.57
2023-12-30T00:49:59.906Z,-5.52
2023-12-30T00:52:27.639Z,-5.60
2023-12-30T00:54:55.580Z,-5.61
2023-12-30T00:57:23.719Z,-5.74
2023-12-30T00:59:51.740Z,-5.73
2023-12-30T01:02:19.543Z,-5.87
2023-12-30T01:04:47.404Z,-5.79
2023-12-30T01:07:16.134Z,-5.78
2023-12-30T01:09:43.819Z,-5.82
2023-12-30T01:12:11.708Z,-5.90
2023-12-30T01:14:39.737Z,-6.03
2023-12-30T01:17:07.443Z,-6.06
2023-12-30T01:19:35.186Z,-6.08
2023-12-30T01:22:03.200Z,-6.08
2023-12-30T01:24:31.598Z,-6.15
2023-12-30T01:26:59.431Z,-6.16
2023-12-30T01:29:30.618Z,-6.29
2023-12-30T01:31:59.233Z,-6.29
2023-12-30T01:34:27.769Z,-6.37
2023-12-30T01:36:56.944Z,-6.30
2023-12-30T01:39:24.555Z,-6.36
2023-12-30T01:41:53.389Z,-6.28
2023-12-30T01:44:22.348Z,-6.48
2023-12-30T01:46:50.218Z,-6.52
2023-12-30T01:49:18.425Z,-6.66
2023-12-30T01:51:48.947Z,-6.47
2023-12-30T01:54:19.251Z,-6.56
2023-12-30T01:56:47.189Z,-6.64
2023-12-30T01:59:18.180Z,-6.58
2023-12-30T02:01:47.151Z,-6.36
2023-12-30T02:04:14.988Z,-6.59
2023-12-30T02:06:42.916Z,-6.52
2023-12-30T02:09:10.935Z,-6.55
2023-12-30T02:11:39.452Z,-6.57
2023-12-30T02:14:26.887Z,-6.46
2023-12-30T02:16:56.160Z,-6.59
2023-12-30T02:19:43.905Z,-6.55
2023-12-30T02:22:11.515Z,-6.62
2023-12-30T02:24:39.198Z,-6.43
2023-12-30T02:27:06.970Z,-6.51
2023-12-30T02:29:34.602Z,-6.67
2023-12-30T02:32:02.427Z,-6.55
2023-12-30T02:34:30.805Z,-6.58
2023-12-30T02:36:58.723Z,-6.56
2023-12-30T02:39:27.099Z,-6.69
2023-12-30T02:41:54.985Z,-6.74
2023-12-30T02:44:22.783Z,-6.57
2023-12-30T02:46:50.622Z,-6.50
2023-12-30T02:49:18.667Z,-6.52
2023-12-30T02:51:46.517Z,-6.57
2023-12-30T02:54:14.170Z,-6.62
2023-12-30T02:56:42.802Z,-6.43
2023-12-30T02:59:10.553Z,-6.48
2023-12-30T03:01:39.898Z,-6.45
2023-12-30T03:04:08.143Z,-6.55
2023-12-30T03:06:36.098Z,-6.47
2023-12-30T03:09:04.053Z,-6.52
2023-12-30T03:11:32.652Z,-6.56
2023-12-30T03:14:00.628Z,-6.60
2023-12-30T03:16:28.598Z,-6.49
2023-12-30T03:18:57.096Z,-6.48
2023-12-30T03:21:24.959Z,-6.38
2023-12-30T03:23:53.151Z,-6.41
2023-12-30T03:26:21.856Z,-6.38
2023-12-30T03:28:51.691Z,-6.41
2023-12-30T03:31:30.616Z,-6.38
2023-12-30T03:33:58.802Z,-6.33
2023-12-30T03:36:31.444Z,-6.27
2023-12-30T03:38:59.615Z,-6.39
2023-12-30T03:41:27.452Z,-6.34
2023-12-30T03:43:55.823Z,-6.48
2023-12-30T03:46:23.632Z,-6.36
2023-12-30T03:48:51.445Z,-6.50
2023-12-30T03:51:19.220Z,-6.38
2023-12-30T03:53:47.216Z,-6.42
2023-12-30T03:56:18.200Z,-6.31
2023-12-30T03:58:46.290Z,-6.47
2023-12-30T04:01:17.485Z,-6.43
2023-12-30T04:03:45.449Z,-6.43
2023-12-30T04:06:22.984Z,-6.39
2023-12-30T04:08:50.783Z,-6.46
2023-12-30T04:11:19.225Z,-6.39
2023-12-30T04:13:47.651Z,-6.38
2023-12-30T04:16:19.099Z,-6.39
2023-12-30T04:18:46.875Z,-6.31
2023-12-30T04:21:17.617Z,-6.42
2023-12-30T04:23:46.366Z,-6.40
2023-12-30T04:26:17.062Z,-6.36
2023-12-30T04:28:48.129Z,-6.51
2023-12-30T04:31:18.125Z,-6.35
2023-12-30T04:33:46.762Z,-6.34
2023-12-30T04:36:16.661Z,-6.28
2023-12-30T04:38:46.366Z,-6.18
2023-12-30T04:41:14.936Z,-6.13
2023-12-30T04:43:43.048Z,-6.11
2023-12-30T04:46:24.961Z,-6.17
2023-12-30T04:48:56.072Z,-6.11
2023-12-30T04:51:23.883Z,-6.33
2023-12-30T04:54:32.621Z,-6.22
2023-12-30T04:57:46.048Z,-6.08
2023-12-30T05:00:23.641Z,-6.17
2023-12-30T05:02:55.229Z,-6.35
2023-12-30T05:05:47.704Z,-6.26
2023-12-30T05:08:18.346Z,-6.00
2023-12-30T05:10:51.050Z,-6.25
2023-12-30T05:13:22.900Z,-5.93
2023-12-30T05:15:57.835Z,-5.99
2023-12-30T05:18:26.110Z,-5.81
2023-12-30T05:21:05.701Z,-5.81
2023-12-30T05:23:41.543Z,-5.81
2023-12-30T05:26:18.751Z,-5.59
2023-12-30T05:29:51.984Z,-5.51
2023-12-30T05:32:24.196Z,-5.72
2023-12-30T05:34:54.818Z,-5.40
2023-12-30T05:37:35.054Z,-5.72
2023-12-30T05:40:11.431Z,-5.30
2023-12-30T05:42:45.285Z,-5.54
2023-12-30T05:45:18.408Z,-5.14
2023-12-30T05:47:51.348Z,-5.01
2023-12-30T05:50:21.211Z,-5.00
2023-12-30T05:53:00.276Z,-5.02
2023-12-30T05:55:36.132Z,-4.81
2023-12-30T05:58:06.908Z,-4.70
2023-12-30T06:00:42.104Z,-4.64
2023-12-30T06:03:18.499Z,-4.59
2023-12-30T06:05:49.026Z,-4.50
2023-12-30T06:08:24.776Z,-4.57
2023-12-30T06:10:58.051Z,-4.71
2023-12-30T06:13:37.374Z,-4.25
2023-12-30T06:16:32.990Z,-4.44
2023-12-30T06:22:26.665Z,-4.34
2023-12-30T06:24:56.832Z,-3.92
2023-12-30T06:30:35.541Z,-3.83
2023-12-30T06:33:10.353Z,-3.78
2023-12-30T06:35:43.069Z,-3.91
2023-12-30T06:38:20.115Z,-3.61
2023-12-30T06:40:57.726Z,-3.94
2023-12-30T06:45:26.653Z,-3.88
2023-12-30T06:46:36.753Z,-3.72
2023-12-30T06:49:06.109Z,-3.65
2023-12-30T06:51:35.317Z,-3.55
2023-12-30T06:54:06.887Z,-3.62
2023-12-30T06:56:35.290Z,-3.54
2023-12-30T06:59:04.675Z,-3.59
2023-12-30T07:01:34.054Z,-3.58
2023-12-30T07:04:01.863Z,-3.64
2023-12-30T07:06:29.712Z,-3.72
2023-12-30T07:08:57.628Z,-3.69
2023-12-30T07:11:25.819Z,-3.60
2023-12-30T07:13:55.894Z,-3.68
2023-12-30T07:16:23.894Z,-3.61
2023-12-30T07:18:53.271Z,-3.62
2023-12-30T07:21:22.902Z,-3.46
2023-12-30T07:23:50.969Z,-3.56
2023-12-30T07:26:18.963Z,-3.76
2023-12-30T07:28:49.412Z,-3.76
2023-12-30T07:31:17.431Z,-3.89
2023-12-30T07:33:45.345Z,-3.85
2023-12-30T07:36:14.155Z,-3.93
2023-12-30T07:38:42.321Z,-3.90
2023-12-30T07:41:10.978Z,-3.94
2023-12-30T07:43:39.799Z,-3.94
2023-12-30T07:46:07.706Z,-3.87
2023-12-30T07:48:36.256Z,-3.89
2023-12-30T07:51:05.916Z,-3.91
2023-12-30T07:53:38.171Z,-3.96
2023-12-30T07:56:06.442Z,-3.85
2023-12-30T07:58:34.317Z,-3.81
2023-12-30T08:01:02.242Z,-3.86
2023-12-30T08:03:30.048Z,-3.91
2023-12-30T08:05:57.809Z,-3.84
2023-12-30T08:08:25.731Z,-3.75
2023-12-30T08:10:53.434Z,-3.73
2023-12-30T08:13:22.247Z,-3.73
2023-12-30T08:15:50.584Z,-3.83
2023-12-30T08:18:18.693Z,-3.73
2023-12-30T08:20:46.650Z,-3.78
2023-12-30T08:23:14.444Z,-3.89
2023-12-30T08:25:42.480Z,-3.85
2023-12-30T08:28:10.330Z,-3.68
2023-12-30T08:30:39.323Z,-3.63
2023-12-30T08:33:11.417Z,-3.62
2023-12-30T08:35:39.725Z,-3.62
2023-12-30T08:38:07.493Z,-3.66
2023-12-30T08:40:37.277Z,-3.53
2023-12-30T08:43:06.659Z,-3.70
2023-12-30T08:45:34.866Z,-3.58
2023-12-30T08:48:02.779Z,-3.45
2023-12-30T08:50:30.942Z,-3.58
2023-12-30T08:52:59.593Z,-3.50
2023-12-30T08:55:30.431Z,-3.43
2023-12-30T08:57:58.228Z,-3.43
2023-12-30T09:00:27.743Z,-3.41
2023-12-30T09:02:57.731Z,-3.25
2023-12-30T09:05:25.740Z,-3.34
2023-12-30T09:07:53.544Z,-3.48
2023-12-30T09:10:21.618Z,-3.38
2023-12-30T09:12:49.772Z,-3.50
2023-12-30T09:15:20.775Z,-3.49
2023-12-30T09:17:50.517Z,-3.39
2023-12-30T09:20:18.831Z,-3.59
2023-12-30T09:22:47.017Z,-3.54
2023-12-30T09:25:14.840Z,-3.41
2023-12-30T09:27:42.905Z,-3.57
2023-12-30T09:30:12.469Z,-3.45
2023-12-30T09:32:40.675Z,-3.42
2023-12-30T09:35:09.322Z,-3.62
2023-12-30T09:37:37.191Z,-3.53
2023-12-30T09:40:05.502Z,-3.49
2023-12-30T09:42:34.637Z,-3.47
2023-12-30T09:45:05.636Z,-3.39
2023-12-30T09:47:47.626Z,-3.64
2023-12-30T09:50:16.171Z,-3.56
2023-12-30T09:52:44.440Z,-3.64
2023-12-30T09:55:12.264Z,-3.61
2023-12-30T09:57:40.614Z,-3.60
2023-12-30T10:00:10.646Z,-3.75
2023-12-30T10:02:39.763Z,-3.73
2023-12-30T10:05:08.499Z,-3.59
2023-12-30T10:07:40.174Z,-3.58
2023-12-30T10:10:09.725Z,-3.66
2023-12-30T10:12:37.467Z,-3.65
2023-12-30T10:15:05.797Z,-3.61
2023-12-30T10:17:33.590Z,-3.64
2023-12-30T10:20:01.666Z,-3.65
2023-12-30T10:22:31.243Z,-3.61
2023-12-30T10:24:59.377Z,-3.56
2023-12-30T10:27:29.125Z,-3.70
2023-12-30T10:30:00.533Z,-3.72
2023-12-30T10:32:31.761Z,-3.85
2023-12-30T10:34:59.619Z,-3.70
2023-12-30T10:37:29.973Z,-3.77
2023-12-30T10:40:00.688Z,-3.65
2023-12-30T10:42:30.029Z,-3.79
2023-12-30T10:44:59.346Z,-3.81
2023-12-30T10:47:29.961Z,-3.85
2023-12-30T10:50:08.103Z,-3.74
2023-12-30T10:52:40.767Z,-3.82
2023-12-30T10:55:15.553Z,-3.75
2023-12-30T10:57:52.846Z,-3.87
2023-12-30T11:00:22.211Z,-3.94
2023-12-30T11:02:54.036Z,-3.91
2023-12-30T11:05:37.066Z,-3.90
2023-12-30T11:08:06.421Z,-3.99
2023-12-30T11:10:35.229Z,-3.94
2023-12-30T11:13:03.719Z,-3.94
2023-12-30T11:15:36.466Z,-3.98
2023-12-30T11:18:13.213Z,-4.01
2023-12-30T11:20:48.486Z,-3.92
2023-12-30T11:23:19.165Z,-4.04
2023-12-30T11:25:48.487Z,-4.12
2023-12-30T11:28:26.883Z,-4.02
2023-12-30T11:31:01.048Z,-4.33
2023-12-30T11:33:29.985Z,-4.09
2023-12-30T11:36:05.208Z,-4.04
2023-12-30T11:38:40.164Z,-4.51
2023-12-30T11:41:10.753Z,-4.25
2023-12-30T11:43:41.238Z,-4.15
2023-12-30T11:46:10.092Z,-4.19
2023-12-30T11:48:50.914Z,-4.35
2023-12-30T11:51:30.516Z,-4.19
2023-12-30T11:54:03.692Z,-4.15
2023-12-30T11:56:32.205Z,-4.18
2023-12-30T11:59:02.110Z,-4.28
2023-12-30T12:01:32.283Z,-4.29
2023-12-30T12:04:00.189Z,-4.34
2023-12-30T12:06:28.676Z,-4.26
2023-12-30T12:08:59.401Z,-4.34
2023-12-30T12:11:27.907Z,-4.40
2023-12-30T12:14:00.077Z,-4.38
2023-12-30T12:16:34.076Z,-4.83
2023-12-30T12:19:06.720Z,-4.62
2023-12-30T12:21:37.915Z,-4.58
2023-12-30T12:24:07.282Z,-4.72
2023-12-30T12:26:35.007Z,-4.61
2023-12-30T12:29:06.203Z,-4.51
2023-12-30T12:31:34.525Z,-4.55
2023-12-30T12:34:24.296Z,-4.43
2023-12-30T12:36:54.599Z,-4.54
2023-12-30T12:39:24.029Z,-4.43
2023-12-30T12:42:02.233Z,-4.44
2023-12-30T12:44:33.523Z,-4.37
2023-12-30T12:47:02.064Z,-4.50
2023-12-30T12:49:33.797Z,-4.50
2023-12-30T12:52:02.299Z,-4.48
2023-12-30T12:54:34.698Z,-4.57
2023-12-30T12:57:05.775Z,-4.54
2023-12-30T12:59:33.554Z,-4.60
2023-12-30T13:02:01.908Z,-4.49
2023-12-30T13:04:30.302Z,-4.50
2023-12-30T13:07:02.688Z,-4.42
2023-12-30T13:10:00.595Z,-4.52
2023-12-30T13:12:31.967Z,-4.44
2023-12-30T13:15:11.505Z,-4.65
2023-12-30T13:17:45.974Z,-4.48
2023-12-30T13:20:18.479Z,-4.56
2023-12-30T13:23:31.707Z,-4.50
2023-12-30T13:26:26.350Z,-4.58
2023-12-30T13:28:55.372Z,-4.66
2023-12-30T13:31:26.025Z,-4.58
2023-12-30T13:34:03.485Z,-4.79
2023-12-30T13:36:45.207Z,-4.83
2023-12-30T13:39:18.369Z,-4.62
2023-12-30T13:41:46.224Z,-4.52
2023-12-30T13:44:15.361Z,-4.60
2023-12-30T13:46:59.869Z,-4.52
2023-12-30T13:50:00.616Z,-4.43
2023-12-30T13:52:30.060Z,-4.61
2023-12-30T13:54:58.437Z,-4.57
2023-12-30T13:57:31.017Z,-4.60
2023-12-30T13:59:59.715Z,-4.63
2023-12-30T14:02:29.646Z,-4.61
2023-12-30T14:05:00.347Z,-4.75
2023-12-30T14:07:29.973Z,-4.74
2023-12-30T14:10:02.218Z,-4.57
2023-12-30T14:12:32.027Z,-4.68
2023-12-30T14:15:07.504Z,-4.64
2023-12-30T14:17:36.613Z,-4.75
2023-12-30T14:20:07.977Z,-4.54
2023-12-30T14:22:53.863Z,-4.58
2023-12-30T14:25:21.993Z,-4.66
2023-12-30T14:27:54.153Z,-4.62
2023-12-30T14:30:22.005Z,-4.65
2023-12-30T14:33:02.963Z,-4.61
2023-12-30T14:35:31.342Z,-4.91
2023-12-30T14:37:59.417Z,-4.67
2023-12-30T14:40:27.783Z,-4.69
2023-12-30T14:42:56.761Z,-4.76
2023-12-30T14:45:24.776Z,-4.77
2023-12-30T14:47:52.683Z,-4.75
2023-12-30T14:50:20.721Z,-4.69
2023-12-30T14:52:48.693Z,-4.70
2023-12-30T14:55:18.621Z,-4.64
2023-12-30T14:57:51.282Z,-4.70
2023-12-30T15:00:24.862Z,-4.68
2023-12-30T15:02:54.249Z,-4.83
2023-12-30T15:05:23.857Z,-4.83
2023-12-30T15:07:55.742Z,-4.74
2023-12-30T15:10:25.678Z,-4.83
2023-12-30T15:12:54.917Z,-4.98
2023-12-30T15:15:22.859Z,-4.83
2023-12-30T15:17:52.023Z,-4.82
2023-12-30T15:20:21.113Z,-5.15
2023-12-30T15:22:49.703Z,-4.77
2023-12-30T15:25:20.055Z,-4.86
2023-12-30T15:27:54.041Z,-4.91
2023-12-30T15:30:26.099Z,-4.88
2023-12-30T15:32:56.652Z,-4.91
2023-12-30T15:35:24.635Z,-5.00
2023-12-30T15:37:53.539Z,-4.96
2023-12-30T15:40:21.540Z,-4.96
2023-12-30T15:42:50.113Z,-5.21
2023-12-30T15:45:18.013Z,-5.10
2023-12-30T15:47:48.658Z,-5.14
2023-12-30T15:50:16.535Z,-5.07
2023-12-30T15:52:44.648Z,-5.09
2023-12-30T15:55:14.086Z,-5.05
2023-12-30T15:57:42.235Z,-5.14
2023-12-30T16:00:11.666Z,-5.16
2023-12-30T16:02:39.760Z,-5.22
2023-12-30T16:05:08.057Z,-5.09
2023-12-30T16:07:39.241Z,-5.13
2023-12-30T16:10:07.867Z,-5.31
2023-12-30T16:12:37.291Z,-5.17
2023-12-30T16:15:09.713Z,-5.31
2023-12-30T16:18:08.695Z,-5.37
2023-12-30T16:20:39.543Z,-5.35
2023-12-30T16:23:13.183Z,-5.46
2023-12-30T16:25:41.703Z,-5.24
2023-12-30T16:28:10.448Z,-5.24
2023-12-30T16:30:41.191Z,-5.20
2023-12-30T16:33:09.621Z,-5.29
2023-12-30T16:35:38.013Z,-5.17
2023-12-30T16:38:07.303Z,-5.34
2023-12-30T16:40:35.520Z,-5.20
2023-12-30T16:43:03.901Z,-5.37
2023-12-30T16:45:32.109Z,-5.23
2023-12-30T16:48:02.349Z,-5.49
2023-12-30T16:50:30.339Z,-5.41
2023-12-30T16:52:58.268Z,-5.30
2023-12-30T16:55:26.231Z,-5.37
2023-12-30T16:57:55.323Z,-5.41
2023-12-30T17:00:25.828Z,-5.26
2023-12-30T17:02:54.279Z,-5.36
2023-12-30T17:05:22.428Z,-5.32
2023-12-30T17:07:51.193Z,-5.25
2023-12-30T17:10:36.544Z,-5.20
2023-12-30T17:13:07.283Z,-5.20
2023-12-30T17:15:36.174Z,-5.29
2023-12-30T17:18:05.249Z,-5.19
2023-12-30T17:20:35.311Z,-5.39
2023-12-30T17:23:03.699Z,-5.24
2023-12-30T17:25:31.582Z,-5.29
2023-12-30T17:27:59.575Z,-5.26
2023-12-30T17:30:31.358Z,-5.21
2023-12-30T17:33:04.739Z,-5.15
2023-12-30T17:35:32.889Z,-5.20
2023-12-30T17:38:01.408Z,-5.26
2023-12-30T17:40:29.698Z,-5.30
2023-12-30T17:42:57.895Z,-5.28
2023-12-30T17:45:26.217Z,-5.26
2023-12-30T17:47:54.667Z,-5.27
2023-12-30T17:50:23.374Z,-5.25
2023-12-30T17:52:51.376Z,-5.27
2023-12-30T17:55:19.618Z,-5.24
2023-12-30T17:57:47.427Z,-5.33
2023-12-30T18:00:16.517Z,-5.26
2023-12-30T18:02:44.335Z,-5.38
2023-12-30T18:05:13.468Z,-5.40
2023-12-30T18:07:41.893Z,-5.34
2023-12-30T18:10:09.836Z,-5.32
2023-12-30T18:12:38.416Z,-5.34
2023-12-30T18:15:07.075Z,-5.34
2023-12-30T18:17:36.152Z,-5.43
2023-12-30T18:20:04.084Z,-5.41
2023-12-30T18:22:32.352Z,-5.39
2023-12-30T18:25:00.579Z,-5.37
2023-12-30T18:27:28.500Z,-5.28
2023-12-30T18:29:56.260Z,-5.44
2023-12-30T18:32:24.019Z,-5.40
2023-12-30T18:34:51.901Z,-5.40
2023-12-30T18:37:19.974Z,-5.45
2023-12-30T18:39:47.770Z,-5.41
2023-12-30T18:42:15.954Z,-5.30
2023-12-30T18:44:44.037Z,-5.44
2023-12-30T18:47:13.026Z,-5.35
2023-12-30T18:49:42.013Z,-5.60
2023-12-30T18:52:09.846Z,-5.51
2023-12-30T18:54:37.770Z,-5.65
2023-12-30T18:57:05.949Z,-5.61
2023-12-30T18:59:33.621Z,-5.64
2023-12-30T19:02:03.333Z,-5.66
2023-12-30T19:04:58.782Z,-5.75
2023-12-30T19:07:32.993Z,-5.68
2023-12-30T19:10:00.864Z,-5.74
2023-12-30T19:12:30.703Z,-5.77
2023-12-30T19:14:58.541Z,-5.66
2023-12-30T19:17:28.478Z,-5.74
2023-12-30T19:19:57.168Z,-5.73
2023-12-30T19:22:25.017Z,-5.80
2023-12-30T19:24:53.210Z,-5.86
2023-12-30T19:27:21.990Z,-5.84
2023-12-30T19:29:52.585Z,-5.83
2023-12-30T19:32:20.464Z,-5.90
2023-12-30T19:34:48.319Z,-6.00
2023-12-30T19:37:16.977Z,-5.94
2023-12-30T19:39:45.341Z,-5.84
2023-12-30T19:42:13.178Z,-5.96
2023-12-30T19:44:40.966Z,-5.88
2023-12-30T19:47:09.150Z,-5.88
2023-12-30T19:49:37.258Z,-5.88
2023-12-30T19:52:05.294Z,-6.04
2023-12-30T19:54:39.235Z,-5.96
2023-12-30T19:57:07.811Z,-6.16
2023-12-30T19:59:39.237Z,-6.39
2023-12-30T20:02:08.471Z,-5.98
2023-12-30T20:04:42.344Z,-5.92
2023-12-30T20:07:13.809Z,-6.20
2023-12-30T20:09:43.786Z,-6.01
2023-12-30T20:12:11.588Z,-6.08
2023-12-30T20:14:40.776Z,-6.05
2023-12-30T20:17:08.533Z,-5.98
2023-12-30T20:19:36.395Z,-6.00
2023-12-30T20:22:04.342Z,-6.06
2023-12-30T20:24:32.089Z,-6.04
2023-12-30T20:26:59.985Z,-6.13
2023-12-30T20:29:27.939Z,-6.05
2023-12-30T20:31:57.374Z,-5.97
2023-12-30T20:34:25.864Z,-6.02
2023-12-30T20:36:53.733Z,-6.00
2023-12-30T20:39:22.133Z,-6.12
2023-12-30T20:41:50.615Z,-6.03
2023-12-30T20:44:19.440Z,-6.07
2023-12-30T20:46:48.561Z,-6.16
2023-12-30T20:49:16.650Z,-6.14
2023-12-30T20:51:51.900Z,-6.34
2023-12-30T20:54:19.850Z,-6.18
2023-12-30T20:56:48.966Z,-6.12
2023-12-30T20:59:23.137Z,-6.17
2023-12-30T21:01:51.108Z,-6.18
2023-12-30T21:04:18.988Z,-6.20
2023-12-30T21:06:47.135Z,-6.24
2023-12-30T21:09:16.170Z,-6.36
2023-12-30T21:11:44.236Z,-6.22
2023-12-30T21:14:13.303Z,-6.23
2023-12-30T21:16:45.135Z,-6.18
2023-12-30T21:19:14.341Z,-6.25
2023-12-30T21:21:43.683Z,-6.16
2023-12-30T21:24:11.466Z,-6.23
2023-12-30T21:26:39.825Z,-6.20
2023-12-30T21:29:07.952Z,-6.21
2023-12-30T21:31:35.824Z,-6.25
2023-12-30T21:34:03.829Z,-6.19
2023-12-30T21:36:31.645Z,-6.25
2023-12-30T21:38:59.762Z,-6.24
2023-12-30T21:41:27.660Z,-6.14
2023-12-30T21:43:55.870Z,-6.26
2023-12-30T21:46:26.649Z,-6.23
2023-12-30T21:48:59.231Z,-6.13
2023-12-30T21:51:27.194Z,-6.12
2023-12-30T21:53:55.984Z,-6.15
2023-12-30T21:56:25.088Z,-6.17
2023-12-30T21:58:53.806Z,-6.15
2023-12-30T22:01:22.062Z,-6.13
2023-12-30T22:03:50.066Z,-6.16
2023-12-30T22:06:17.994Z,-6.23
2023-12-30T22:08:45.920Z,-6.16
2023-12-30T22:11:14.047Z,-6.17
2023-12-30T22:13:41.834Z,-6.23
2023-12-30T22:16:09.716Z,-6.23
2023-12-30T22:18:37.689Z,-6.34
2023-12-30T22:21:05.531Z,-6.40
2023-12-30T22:23:36.263Z,-6.33
2023-12-30T22:26:04.174Z,-6.34
2023-12-30T22:28:31.986Z,-6.44
2023-12-30T22:31:00.125Z,-6.43
2023-12-30T22:33:29.850Z,-6.46
2023-12-30T22:35:57.996Z,-6.35
2023-12-30T22:38:25.614Z,-6.45
2023-12-30T22:40:53.513Z,-6.38
2023-12-30T22:43:21.506Z,-6.44
2023-12-30T22:45:49.232Z,-6.45
2023-12-30T22:48:18.207Z,-6.45
2023-12-30T22:50:46.787Z,-6.57
2023-12-30T22:53:14.486Z,-6.49
2023-12-30T22:55:42.675Z,-6.52
2023-12-30T22:58:10.599Z,-6.54
2023-12-30T23:00:40.901Z,-6.62
2023-12-30T23:03:09.188Z,-6.58
2023-12-30T23:05:37.261Z,-6.63
2023-12-30T23:08:05.336Z,-6.62
2023-12-30T23:10:33.186Z,-6.78
2023-12-30T23:13:02.024Z,-6.70
2023-12-30T23:15:30.775Z,-6.62
2023-12-30T23:17:59.955Z,-6.73
2023-12-30T23:20:30.923Z,-6.71
2023-12-30T23:23:04.904Z,-6.77
2023-12-30T23:25:39.312Z,-6.86
2023-12-30T23:28:09.813Z,-6.98
2023-12-30T23:30:39.339Z,-6.98
2023-12-30T23:33:10.002Z,-7.03
2023-12-30T23:35:44.531Z,-6.96
2023-12-30T23:38:13.738Z,-6.90
2023-12-30T23:40:41.767Z,-6.92
2023-12-30T23:43:09.480Z,-6.93
2023-12-30T23:45:37.826Z,-7.13
2023-12-30T23:48:06.130Z,-7.02
2023-12-30T23:50:34.365Z,-7.08
2023-12-30T23:53:02.495Z,-7.14
2023-12-30T23:55:30.391Z,-7.07
2023-12-30T23:57:58.901Z,-7.15
